createdAt,value
2022-11-09T00:01:42.931Z,100416.53
2022-11-09T00:04:10.521Z,100413.06
2022-11-09T00:06:38.133Z,100410.38
2022-11-09T00:09:08.121Z,100403.75
2022-11-09T00:11:36.957Z,100413.41
2022-11-09T00:14:03.623Z,100400.78
2022-11-09T00:16:30.140Z,100398.47
2022-11-09T00:18:56.633Z,100400.63
2022-11-09T00:21:25.085Z,100392.25
2022-11-09T00:23:52.959Z,100407.03
2022-11-09T00:26:21.032Z,100394.94
2022-11-09T00:28:48.170Z,100400.75
2022-11-09T00:31:17.889Z,100400.19
2022-11-09T00:33:49.346Z,100400.22
2022-11-09T00:36:15.903Z,100408.63
2022-11-09T00:38:42.620Z,100402.50
2022-11-09T00:41:11.336Z,100405.47
2022-11-09T00:43:38.383Z,100403.69
2022-11-09T00:46:05.249Z,100403.47
2022-11-09T00:48:32.116Z,100408.16
2022-11-09T00:50:59.064Z,100404.47
2022-11-09T00:53:26.739Z,100409.50
2022-11-09T00:55:58.836Z,100405.50
2022-11-09T00:58:27.905Z,100404.88
2022-11-09T01:00:56.407Z,100403.28
2022-11-09T01:03:24.198Z,100412.06
2022-11-09T01:05:51.655Z,100411.91
2022-11-09T01:08:18.880Z,100404.69
2022-11-09T01:10:48.105Z,100412.16
2022-11-09T01:13:17.488Z,100407.69
2022-11-09T01:15:46.628Z,100414.25
2022-11-09T01:18:14.870Z,100410.03
2022-11-09T01:20:43.392Z,100423.13
2022-11-09T01:23:11.224Z,100417.91
2022-11-09T01:25:37.977Z,100430.03
2022-11-09T01:28:05.536Z,100425.56
2022-11-09T01:30:41.102Z,100431.56
2022-11-09T01:33:10.913Z,100436.34
2022-11-09T01:35:39.627Z,100426.31
2022-11-09T01:38:08.013Z,100428.25
2022-11-09T01:40:37.417Z,100421.47
2022-11-09T01:43:22.988Z,100428.88
2022-11-09T01:46:02.390Z,100430.75
2022-11-09T01:48:58.114Z,100428.44
2022-11-09T01:51:30.543Z,100426.06
2022-11-09T01:54:05.391Z,100427.94
2022-11-09T01:56:33.486Z,100424.25
2022-11-09T01:59:05.785Z,100429.84
2022-11-09T02:01:33.593Z,100425.63
2022-11-09T02:04:18.536Z,100418.53
2022-11-09T02:06:47.181Z,100417.19
2022-11-09T02:09:22.836Z,100418.78
2022-11-09T02:11:49.361Z,100416.66
2022-11-09T02:14:16.412Z,100423.78
2022-11-09T02:16:44.663Z,100424.78
2022-11-09T02:19:11.261Z,100435.28
2022-11-09T02:21:38.213Z,100425.44
2022-11-09T02:24:05.406Z,100423.13
2022-11-09T02:26:41.321Z,100423.94
2022-11-09T02:29:13.388Z,100426.06
2022-11-09T02:31:47.225Z,100424.25
2022-11-09T02:34:18.289Z,100421.63
2022-11-09T02:36:45.582Z,100415.31
2022-11-09T02:39:15.272Z,100430.81
2022-11-09T02:41:52.381Z,100430.16
2022-11-09T02:44:19.971Z,100425.44
2022-11-09T02:46:46.996Z,100421.44
2022-11-09T02:49:13.874Z,100422.75
2022-11-09T02:51:40.357Z,100426.16
2022-11-09T02:54:07.101Z,100429.59
2022-11-09T02:56:33.590Z,100435.66
2022-11-09T02:59:00.170Z,100448.56
2022-11-09T03:01:26.779Z,100435.50
2022-11-09T03:03:53.402Z,100440.63
2022-11-09T03:06:20.034Z,100445.56
2022-11-09T03:08:46.594Z,100443.97
2022-11-09T03:11:13.095Z,100441.63
2022-11-09T03:13:39.654Z,100443.53
2022-11-09T03:16:08.268Z,100434.31
2022-11-09T03:18:34.777Z,100453.53
2022-11-09T03:21:03.281Z,100447.69
2022-11-09T03:23:30.169Z,100449.78
2022-11-09T03:25:56.706Z,100446.25
2022-11-09T03:28:23.242Z,100443.59
2022-11-09T03:30:49.726Z,100450.22
2022-11-09T03:33:16.451Z,100449.53
2022-11-09T03:35:44.041Z,100454.31
2022-11-09T03:38:10.921Z,100460.38
2022-11-09T03:40:37.483Z,100461.13
2022-11-09T03:43:04.028Z,100458.75
2022-11-09T03:45:30.608Z,100462.72
2022-11-09T03:48:00.025Z,100457.44
2022-11-09T03:50:29.442Z,100461.91
2022-11-09T03:52:56.837Z,100467.72
2022-11-09T03:55:23.320Z,100462.91
2022-11-09T03:57:50.208Z,100457.63
2022-11-09T04:00:20.034Z,100445.53
2022-11-09T04:02:46.629Z,100449.47
2022-11-09T04:05:13.625Z,100458.38
2022-11-09T04:07:41.178Z,100464.50
2022-11-09T04:10:08.037Z,100467.66
2022-11-09T04:12:34.574Z,100468.72
2022-11-09T04:15:01.102Z,100483.16
2022-11-09T04:17:27.628Z,100490.25
2022-11-09T04:19:54.183Z,100491.84
2022-11-09T04:22:20.690Z,100494.72
2022-11-09T04:24:47.210Z,100495.25
2022-11-09T04:27:13.754Z,100493.97
2022-11-09T04:29:40.265Z,100492.44
2022-11-09T04:32:07.463Z,100492.41
2022-11-09T04:34:33.985Z,100498.16
2022-11-09T04:37:00.532Z,100506.84
2022-11-09T04:39:27.138Z,100499.75
2022-11-09T04:41:53.657Z,100502.91
2022-11-09T04:44:20.169Z,100500.78
2022-11-09T04:46:46.700Z,100498.13
2022-11-09T04:49:13.198Z,100499.22
2022-11-09T04:51:39.718Z,100504.44
2022-11-09T04:54:06.230Z,100492.50
2022-11-09T04:56:32.767Z,100501.22
2022-11-09T04:58:59.340Z,100497.38
2022-11-09T05:01:25.827Z,100496.81
2022-11-09T05:03:52.444Z,100506.25
2022-11-09T05:06:34.102Z,100500.19
2022-11-09T05:09:04.321Z,100498.13
2022-11-09T05:11:32.497Z,100504.47
2022-11-09T05:13:59.506Z,100503.09
2022-11-09T05:16:26.049Z,100500.47
2022-11-09T05:18:52.651Z,100504.97
2022-11-09T05:21:19.656Z,100503.16
2022-11-09T05:23:59.069Z,100498.69
2022-11-09T05:26:40.495Z,100494.28
2022-11-09T05:29:09.857Z,100497.63
2022-11-09T05:31:37.950Z,100507.47
2022-11-09T05:34:06.835Z,100507.50
2022-11-09T05:36:33.996Z,100509.34
2022-11-09T05:39:01.055Z,100513.59
2022-11-09T05:41:28.010Z,100506.50
2022-11-09T05:43:54.826Z,100503.63
2022-11-09T05:46:21.312Z,100508.88
2022-11-09T05:48:47.890Z,100504.69
2022-11-09T05:51:15.163Z,100512.09
2022-11-09T05:53:46.107Z,100515.78
2022-11-09T05:56:14.652Z,100512.34
2022-11-09T05:58:41.901Z,100512.09
2022-11-09T06:01:15.127Z,100507.59
2022-11-09T06:03:44.159Z,100511.81
2022-11-09T06:06:16.697Z,100518.13
2022-11-09T06:08:43.308Z,100513.66
2022-11-09T06:11:11.927Z,100510.78
2022-11-09T06:13:38.562Z,100515.22
2022-11-09T06:16:06.247Z,100511.03
2022-11-09T06:18:35.754Z,100512.88
2022-11-09T06:21:05.079Z,100516.03
2022-11-09T06:23:31.648Z,100515.75
2022-11-09T06:26:00.659Z,100521.56
2022-11-09T06:28:28.118Z,100523.13
2022-11-09T06:30:59.245Z,100527.06
2022-11-09T06:33:26.331Z,100532.34
2022-11-09T06:35:56.383Z,100524.94
2022-11-09T06:38:24.099Z,100532.88
2022-11-09T06:40:55.811Z,100537.34
2022-11-09T06:43:23.326Z,100536.78
2022-11-09T06:45:50.544Z,100541.25
2022-11-09T06:48:17.695Z,100546.75
2022-11-09T06:50:44.300Z,100540.47
2022-11-09T06:53:13.924Z,100544.41
2022-11-09T06:55:43.373Z,100548.34
2022-11-09T06:58:16.029Z,100554.66
2022-11-09T07:00:44.377Z,100558.59
2022-11-09T07:03:15.809Z,100553.84
2022-11-09T07:05:43.412Z,100562.03
2022-11-09T07:08:10.542Z,100564.66
2022-11-09T07:10:37.562Z,100565.69
2022-11-09T07:13:05.452Z,100567.03
2022-11-09T07:15:33.393Z,100565.41
2022-11-09T07:18:01.929Z,100569.91
2022-11-09T07:20:29.619Z,100561.75
2022-11-09T07:22:56.204Z,100567.47
2022-11-09T07:25:23.246Z,100565.16
2022-11-09T07:27:49.722Z,100576.50
2022-11-09T07:30:16.529Z,100582.56
2022-11-09T07:35:29.765Z,100583.63
2022-11-09T07:38:01.337Z,100590.25
2022-11-09T07:40:28.152Z,100592.06
2022-11-09T07:42:58.344Z,100590.81
2022-11-09T07:45:25.898Z,100590.28
2022-11-09T07:48:00.684Z,100594.78
2022-11-09T07:50:29.168Z,100588.97
2022-11-09T07:52:57.199Z,100590.28
2022-11-09T07:55:24.756Z,100592.41
2022-11-09T07:57:59.868Z,100598.97
2022-11-09T08:00:29.405Z,100599.00
2022-11-09T08:02:56.364Z,100600.06
2022-11-09T08:05:23.393Z,100593.94
2022-11-09T08:08:01.472Z,100598.16
2022-11-09T08:10:29.680Z,100593.41
2022-11-09T08:12:58.576Z,100600.75
2022-11-09T08:15:25.618Z,100608.66
2022-11-09T08:17:52.367Z,100603.09
2022-11-09T08:20:19.985Z,100615.16
2022-11-09T08:22:47.582Z,100615.41
2022-11-09T08:25:15.479Z,100611.72
2022-11-09T08:27:42.577Z,100608.50
2022-11-09T08:30:18.742Z,100614.84
2022-11-09T08:32:46.033Z,100610.91
2022-11-09T08:35:17.605Z,100615.91
2022-11-09T08:37:50.115Z,100617.47
2022-11-09T08:40:20.418Z,100613.25
2022-11-09T08:42:47.532Z,100625.09
2022-11-09T08:45:14.171Z,100620.19
2022-11-09T08:47:41.507Z,100632.22
2022-11-09T08:50:09.991Z,100631.69
2022-11-09T08:52:36.732Z,100628.81
2022-11-09T08:55:03.711Z,100639.34
2022-11-09T08:57:31.128Z,100640.38
2022-11-09T08:59:57.990Z,100639.50
2022-11-09T09:02:24.629Z,100641.63
2022-11-09T09:04:51.116Z,100639.41
2022-11-09T09:07:17.688Z,100634.88
2022-11-09T09:09:44.211Z,100632.13
2022-11-09T09:12:11.273Z,100623.28
2022-11-09T09:14:37.887Z,100642.41
2022-11-09T09:17:04.488Z,100641.94
2022-11-09T09:19:31.886Z,100642.56
2022-11-09T09:21:59.318Z,100641.44
2022-11-09T09:24:26.775Z,100641.94
2022-11-09T09:26:53.297Z,100640.38
2022-11-09T09:29:20.249Z,100638.47
2022-11-09T09:31:46.905Z,100634.81
2022-11-09T09:34:14.403Z,100633.47
2022-11-09T09:36:47.312Z,100645.09
2022-11-09T09:39:14.633Z,100648.69
2022-11-09T09:41:51.231Z,100648.72
2022-11-09T09:44:36.609Z,100652.88
2022-11-09T09:47:22.967Z,100656.06
2022-11-09T09:49:54.688Z,100649.31
2022-11-09T09:52:38.545Z,100661.22
2022-11-09T09:55:08.930Z,100662.00
2022-11-09T09:57:41.714Z,100670.00
2022-11-09T10:00:20.595Z,100667.84
2022-11-09T10:02:48.172Z,100668.13
2022-11-09T10:05:16.607Z,100670.28
2022-11-09T10:07:59.791Z,100667.81
2022-11-09T10:10:50.719Z,100671.19
2022-11-09T10:13:26.164Z,100670.91
2022-11-09T10:15:52.629Z,100674.38
2022-11-09T10:18:48.566Z,100673.81
2022-11-09T10:21:24.342Z,100674.13
2022-11-09T10:24:26.966Z,100669.44
2022-11-09T10:26:57.603Z,100683.22
2022-11-09T10:29:41.451Z,100673.88
2022-11-09T10:32:33.561Z,100676.25
2022-11-09T10:35:21.246Z,100667.44
2022-11-09T10:37:50.720Z,100658.41
2022-11-09T10:40:20.343Z,100677.38
2022-11-09T10:42:55.205Z,100670.19
2022-11-09T10:45:33.111Z,100668.84
2022-11-09T10:48:01.490Z,100669.53
2022-11-09T10:50:34.627Z,100684.59
2022-11-09T10:53:18.224Z,100670.78
2022-11-09T10:56:21.883Z,100672.84
2022-11-09T10:58:51.934Z,100672.47
2022-11-09T11:01:35.722Z,100669.97
2022-11-09T11:04:24.066Z,100676.66
2022-11-09T11:06:50.624Z,100655.91
2022-11-09T11:09:20.862Z,100670.19
2022-11-09T11:11:47.588Z,100666.72
2022-11-09T11:14:30.505Z,100674.34
2022-11-09T11:16:57.342Z,100678.53
2022-11-09T11:19:33.144Z,100676.63
2022-11-09T11:22:15.644Z,100678.81
2022-11-09T11:24:47.847Z,100676.34
2022-11-09T11:27:28.432Z,100674.66
2022-11-09T11:30:18.201Z,100676.34
2022-11-09T11:32:50.463Z,100680.56
2022-11-09T11:35:52.933Z,100672.78
2022-11-09T11:38:35.809Z,100680.16
2022-11-09T11:41:11.024Z,100685.13
2022-11-09T11:43:43.418Z,100682.03
2022-11-09T11:46:37.761Z,100686.13
2022-11-09T11:49:49.917Z,100682.09
2022-11-09T11:52:26.275Z,100689.34
2022-11-09T11:55:26.028Z,100687.41
2022-11-09T11:58:22.873Z,100694.00
2022-11-09T12:01:10.639Z,100692.09
2022-11-09T12:03:50.583Z,100704.22
2022-11-09T12:06:39.670Z,100704.28
2022-11-09T12:09:38.442Z,100700.84
2022-11-09T12:12:26.725Z,100703.34
2022-11-09T12:15:21.975Z,100705.13
2022-11-09T12:18:08.707Z,100702.03
2022-11-09T12:20:41.211Z,100702.38
2022-11-09T12:23:16.796Z,100700.34
2022-11-09T12:26:15.462Z,100697.94
2022-11-09T12:28:51.091Z,100696.56
2022-11-09T12:31:38.268Z,100699.50
2022-11-09T12:34:23.412Z,100689.25
2022-11-09T12:36:55.705Z,100691.22
2022-11-09T12:39:55.335Z,100694.72
2022-11-09T12:42:45.175Z,100692.09
2022-11-09T12:45:28.802Z,100699.50
2022-11-09T12:47:59.405Z,100691.69
2022-11-09T12:50:28.179Z,100696.47
2022-11-09T12:52:55.833Z,100693.34
2022-11-09T12:55:41.007Z,100698.09
2022-11-09T12:58:07.949Z,100692.41
2022-11-09T13:00:34.360Z,100704.00
2022-11-09T13:03:14.874Z,100696.69
2022-11-09T13:05:43.040Z,100692.84
2022-11-09T13:08:19.922Z,100704.34
2022-11-09T13:10:46.733Z,100707.38
2022-11-09T13:13:15.999Z,100709.56
2022-11-09T13:16:05.832Z,100707.66
2022-11-09T13:18:35.571Z,100707.66
2022-11-09T13:21:23.652Z,100690.88
2022-11-09T13:24:02.666Z,100723.16
2022-11-09T13:26:30.972Z,100724.22
2022-11-09T13:29:06.571Z,100740.16
2022-11-09T13:32:05.095Z,100737.09
2022-11-09T13:34:46.504Z,100732.44
2022-11-09T13:37:40.963Z,100735.09
2022-11-09T13:40:32.674Z,100740.59
2022-11-09T13:43:08.436Z,100742.03
2022-11-09T13:45:47.082Z,100735.75
2022-11-09T13:48:30.962Z,100749.38
2022-11-09T13:51:35.601Z,100740.06
2022-11-09T13:54:32.289Z,100752.25
2022-11-09T13:57:04.638Z,100761.25
2022-11-09T13:59:47.068Z,100757.88
2022-11-09T14:02:22.522Z,100775.66
2022-11-09T14:04:49.001Z,100779.34
2022-11-09T14:07:27.161Z,100781.78
2022-11-09T14:10:30.137Z,100786.81
2022-11-09T14:12:56.574Z,100788.75
2022-11-09T14:15:43.895Z,100786.63
2022-11-09T14:18:31.791Z,100795.63
2022-11-09T14:21:15.171Z,100799.84
2022-11-09T14:23:42.140Z,100809.25
2022-11-09T14:26:21.749Z,100804.16
2022-11-09T14:28:48.256Z,100794.44
2022-11-09T14:31:29.464Z,100802.31
2022-11-09T14:34:05.048Z,100813.66
2022-11-09T14:36:34.946Z,100803.81
2022-11-09T14:39:04.714Z,100802.28
2022-11-09T14:41:31.707Z,100804.06
2022-11-09T14:44:00.723Z,100809.22
2022-11-09T14:46:30.620Z,100810.53
2022-11-09T14:49:01.171Z,100810.13
2022-11-09T14:51:37.389Z,100814.94
2022-11-09T14:54:16.553Z,100815.00
2022-11-09T14:56:44.798Z,100829.84
2022-11-09T14:59:32.785Z,100832.44
2022-11-09T15:02:09.605Z,100841.97
2022-11-09T15:05:00.981Z,100843.84
2022-11-09T15:07:34.171Z,100848.66
2022-11-09T15:10:17.643Z,100852.34
2022-11-09T15:12:54.935Z,100835.69
2022-11-09T15:15:25.552Z,100846.78
2022-11-09T15:17:52.518Z,100847.84
2022-11-09T15:20:19.028Z,100860.53
2022-11-09T15:22:55.803Z,100857.09
2022-11-09T15:25:31.051Z,100858.41
2022-11-09T15:28:12.655Z,100854.19
2022-11-09T15:30:45.630Z,100868.72
2022-11-09T15:33:24.249Z,100874.84
2022-11-09T15:35:59.876Z,100864.28
2022-11-09T15:38:38.623Z,100862.97
2022-11-09T15:41:16.059Z,100861.63
2022-11-09T15:43:43.435Z,100872.44
2022-11-09T15:46:15.229Z,100866.91
2022-11-09T15:48:45.880Z,100880.06
2022-11-09T15:51:14.050Z,100881.91
2022-11-09T15:53:40.721Z,100884.28
2022-11-09T15:56:11.892Z,100891.41
2022-11-09T15:58:38.393Z,100886.63
2022-11-09T16:01:04.997Z,100889.47
2022-11-09T16:03:31.629Z,100900.00
2022-11-09T16:05:59.307Z,100898.97
2022-11-09T16:08:25.836Z,100910.28
2022-11-09T16:10:52.401Z,100911.09
2022-11-09T16:13:18.941Z,100922.38
2022-11-09T16:15:45.556Z,100923.16
2022-11-09T16:18:12.140Z,100917.53
2022-11-09T16:20:40.244Z,100923.59
2022-11-09T16:23:09.031Z,100931.75
2022-11-09T16:25:35.574Z,100926.72
2022-11-09T16:28:02.085Z,100932.50
2022-11-09T16:30:28.816Z,100934.38
2022-11-09T16:32:55.712Z,100944.63
2022-11-09T16:35:27.341Z,100946.13
2022-11-09T16:37:57.965Z,100946.09
2022-11-09T16:40:25.783Z,100946.28
2022-11-09T16:42:52.337Z,100961.34
2022-11-09T16:45:19.814Z,100963.94
2022-11-09T16:47:50.101Z,100968.09
2022-11-09T16:50:16.878Z,100971.28
2022-11-09T16:52:43.397Z,100974.44
2022-11-09T16:55:10.480Z,100981.75
2022-11-09T16:57:37.591Z,100986.00
2022-11-09T17:00:06.806Z,100988.13
2022-11-09T17:02:34.594Z,100991.25
2022-11-09T17:05:01.098Z,100996.72
2022-11-09T17:07:28.519Z,100998.69
2022-11-09T17:09:55.630Z,101006.56
2022-11-09T17:12:22.162Z,101009.47
2022-11-09T17:14:48.655Z,101019.69
2022-11-09T17:17:21.271Z,101018.34
2022-11-09T17:19:49.611Z,101021.78
2022-11-09T17:22:16.472Z,101022.91
2022-11-09T17:24:43.199Z,101041.28
2022-11-09T17:27:11.186Z,101039.91
2022-11-09T17:29:38.757Z,101041.31
2022-11-09T17:32:08.130Z,101043.69
2022-11-09T17:34:34.713Z,101045.09
2022-11-09T17:37:04.827Z,101036.94
2022-11-09T17:39:32.336Z,101042.41
2022-11-09T17:41:59.219Z,101046.25
2022-11-09T17:44:25.741Z,101060.59
2022-11-09T17:46:52.349Z,101062.78
2022-11-09T17:49:18.860Z,101065.03
2022-11-09T17:51:45.592Z,101075.03
2022-11-09T17:54:12.201Z,101087.06
2022-11-09T17:56:39.029Z,101088.63
2022-11-09T17:59:05.649Z,101098.97
2022-11-09T18:01:37.788Z,101108.03
2022-11-09T18:04:07.304Z,101104.63
2022-11-09T18:06:34.663Z,101118.03
2022-11-09T18:09:38.991Z,101117.00
2022-11-09T18:11:48.159Z,101114.88
2022-11-09T18:14:15.864Z,101124.59
2022-11-09T18:16:42.394Z,101119.75
2022-11-09T18:19:09.063Z,101125.41
2022-11-09T18:21:35.698Z,101129.88
2022-11-09T18:24:02.292Z,101123.81
2022-11-09T18:26:29.159Z,101136.59
2022-11-09T18:28:56.878Z,101137.06
2022-11-09T18:31:24.122Z,101131.69
2022-11-09T18:33:50.986Z,101142.66
2022-11-09T18:36:20.996Z,101140.94
2022-11-09T18:38:47.691Z,101135.88
2022-11-09T18:41:17.915Z,101137.00
2022-11-09T18:43:45.088Z,101140.72
2022-11-09T18:46:14.463Z,101145.97
2022-11-09T18:48:41.072Z,101145.69
2022-11-09T18:51:09.772Z,101146.88
2022-11-09T18:53:42.541Z,101150.56
2022-11-09T18:56:18.893Z,101150.66
2022-11-09T18:58:46.373Z,101168.16
2022-11-09T19:01:14.201Z,101168.81
2022-11-09T19:03:41.430Z,101171.84
2022-11-09T19:06:12.325Z,101170.25
2022-11-09T19:08:57.822Z,101177.09
2022-11-09T19:11:24.983Z,101180.19
2022-11-09T19:13:51.651Z,101190.47
2022-11-09T19:16:18.674Z,101184.09
2022-11-09T19:18:45.208Z,101185.69
2022-11-09T19:21:35.962Z,101182.50
2022-11-09T19:24:03.758Z,101200.81
2022-11-09T19:26:30.387Z,101199.31
2022-11-09T19:28:56.874Z,101204.22
2022-11-09T19:31:24.461Z,101209.56
2022-11-09T19:33:51.938Z,101217.22
2022-11-09T19:36:30.287Z,101211.56
2022-11-09T19:38:57.827Z,101211.56
2022-11-09T19:41:25.143Z,101221.50
2022-11-09T19:43:54.433Z,101225.31
2022-11-09T19:46:22.124Z,101232.41
2022-11-09T19:48:48.629Z,101228.69
2022-11-09T19:51:16.692Z,101230.72
2022-11-09T19:53:49.917Z,101233.25
2022-11-09T19:56:18.169Z,101237.38
2022-11-09T19:58:48.840Z,101241.03
2022-11-09T20:01:15.423Z,101243.75
2022-11-09T20:03:42.012Z,101253.81
2022-11-09T20:06:08.584Z,101263.28
2022-11-09T20:08:36.857Z,101270.31
2022-11-09T20:11:05.815Z,101280.00
2022-11-09T20:13:32.867Z,101281.41
2022-11-09T20:16:08.031Z,101290.19
2022-11-09T20:18:39.854Z,101290.16
2022-11-09T20:21:09.145Z,101295.09
2022-11-09T20:23:35.671Z,101293.94
2022-11-09T20:26:09.808Z,101289.84
2022-11-09T20:28:36.930Z,101293.72
2022-11-09T20:31:15.927Z,101302.53
2022-11-09T20:33:42.666Z,101306.06
2022-11-09T20:36:09.423Z,101309.94
2022-11-09T20:38:36.238Z,101314.72
2022-11-09T20:41:05.878Z,101323.75
2022-11-09T20:43:33.460Z,101331.66
2022-11-09T20:46:25.613Z,101334.03
2022-11-09T20:48:55.420Z,101341.78
2022-11-09T20:51:24.300Z,101345.00
2022-11-09T20:53:51.526Z,101343.50
2022-11-09T20:56:19.865Z,101353.00
2022-11-09T20:58:47.349Z,101354.00
2022-11-09T21:01:17.479Z,101354.72
2022-11-09T21:03:44.660Z,101360.03
2022-11-09T21:06:13.568Z,101356.63
2022-11-09T21:08:43.262Z,101362.00
2022-11-09T21:11:12.938Z,101367.59
2022-11-09T21:13:44.096Z,101368.63
2022-11-09T21:16:13.652Z,101364.38
2022-11-09T21:18:41.131Z,101363.47
2022-11-09T21:21:22.530Z,101373.63
2022-11-09T21:24:07.471Z,101364.63
2022-11-09T21:26:52.920Z,101371.69
2022-11-09T21:29:48.469Z,101374.41
2022-11-09T21:32:15.043Z,101372.03
2022-11-09T21:34:41.824Z,101367.13
2022-11-09T21:37:09.011Z,101375.56
2022-11-09T21:39:36.470Z,101387.19
2022-11-09T21:42:04.569Z,101377.59
2022-11-09T21:44:32.918Z,101381.94
2022-11-09T21:47:00.167Z,101386.19
2022-11-09T21:49:27.164Z,101385.03
2022-11-09T21:51:54.185Z,101391.44
2022-11-09T21:54:21.564Z,101381.59
2022-11-09T21:56:49.108Z,101389.91
2022-11-09T21:59:16.098Z,101391.41
2022-11-09T22:01:43.528Z,101400.66
2022-11-09T22:04:10.478Z,101404.63
2022-11-09T22:06:39.431Z,101404.97
2022-11-09T22:09:08.141Z,101406.69
2022-11-09T22:11:53.615Z,101406.69
2022-11-09T22:14:39.329Z,101406.22
2022-11-09T22:17:10.005Z,101405.53
2022-11-09T22:19:57.736Z,101412.16
2022-11-09T22:22:24.478Z,101414.53
2022-11-09T22:24:50.957Z,101416.47
2022-11-09T22:27:17.509Z,101418.69
2022-11-09T22:29:44.077Z,101424.34
2022-11-09T22:32:10.591Z,101431.28
2022-11-09T22:34:37.145Z,101432.75
2022-11-09T22:37:03.649Z,101428.81
2022-11-09T22:39:30.138Z,101434.56
2022-11-09T22:41:56.635Z,101439.09
2022-11-09T22:44:23.114Z,101438.75
2022-11-09T22:46:49.684Z,101437.47
2022-11-09T22:49:18.090Z,101439.19
2022-11-09T22:51:44.674Z,101449.22
2022-11-09T22:54:11.198Z,101453.78
2022-11-09T22:56:37.742Z,101453.75
2022-11-09T22:59:04.330Z,101457.56
2022-11-09T23:01:30.923Z,101466.31
2022-11-09T23:03:57.686Z,101471.88
2022-11-09T23:06:24.244Z,101468.91
2022-11-09T23:08:50.895Z,101478.16
2022-11-09T23:11:20.649Z,101476.56
2022-11-09T23:13:52.668Z,101487.00
2022-11-09T23:16:20.882Z,101494.03
2022-11-09T23:18:53.921Z,101493.50
2022-11-09T23:21:34.996Z,101486.97
2022-11-09T23:24:04.681Z,101487.63
2022-11-09T23:26:32.835Z,101497.66
2022-11-09T23:29:00.052Z,101496.00
2022-11-09T23:31:27.051Z,101498.28
2022-11-09T23:33:56.013Z,101508.88
2022-11-09T23:36:24.419Z,101512.34
2022-11-09T23:38:51.501Z,101521.56
2022-11-09T23:41:18.646Z,101524.19
2022-11-09T23:43:49.327Z,101520.84
2022-11-09T23:46:17.354Z,101529.09
2022-11-09T23:48:44.577Z,101531.53
2022-11-09T23:51:11.216Z,101531.72
2022-11-09T23:53:38.320Z,101531.28
2022-11-09T23:56:10.590Z,101534.22
2022-11-09T23:58:37.793Z,101540.25
